OIBL METAR and TAF | Updated Today

OIBL METAR

Bandar Lengeh Airport

Observation time: 2:15 hr. ago

OIBL 061800Z 00000KT 3000 BR NSC 18/17 Q1015

Need help? Read our tutorial on how to read METARs or read the parsed version below.

Bandar Lengeh Airport (OIBL) METAR

  • Weather conditions on Mon, 06 Feb 2023 18:00:00 +0000 (2:15 hr. ago):
  • Present conditions: Mist
  • Clouds: No significant clouds are observed
  • Visibility: 3000 meters
  • Wind: Calm
  • Temperature: 18 celsius
  • Dew point: 17 celsius
  • Pressure: 1015 millibars
  • Remarks: None


Useful to know...